sensor_id;sensor_type;location;lat;lon;timestamp;P1;durP1;ratioP1;P2;durP2;ratioP2
40116;SDS011;25829;50.228;18.936;2022-12-07T00:00:18;12.97;;;8.00;;
40116;SDS011;25829;50.228;18.936;2022-12-07T00:03:19;14.80;;;7.97;;
40116;SDS011;25829;50.228;18.936;2022-12-07T00:06:20;13.73;;;8.60;;
40116;SDS011;25829;50.228;18.936;2022-12-07T00:09:21;10.23;;;7.10;;
40116;SDS011;25829;50.228;18.936;2022-12-07T00:12:22;8.20;;;6.57;;
40116;SDS011;25829;50.228;18.936;2022-12-07T00:15:23;12.10;;;8.07;;
40116;SDS011;25829;50.228;18.936;2022-12-07T00:18:23;11.60;;;6.83;;
40116;SDS011;25829;50.228;18.936;2022-12-07T00:21:25;11.60;;;7.67;;
40116;SDS011;25829;50.228;18.936;2022-12-07T00:24:28;12.20;;;7.97;;
40116;SDS011;25829;50.228;18.936;2022-12-07T00:27:28;10.67;;;7.33;;
40116;SDS011;25829;50.228;18.936;2022-12-07T00:30:29;10.13;;;6.63;;
40116;SDS011;25829;50.228;18.936;2022-12-07T00:33:30;9.80;;;7.23;;
40116;SDS011;25829;50.228;18.936;2022-12-07T00:36:30;10.53;;;7.60;;
40116;SDS011;25829;50.228;18.936;2022-12-07T00:39:31;14.33;;;7.57;;
40116;SDS011;25829;50.228;18.936;2022-12-07T00:42:32;9.83;;;6.30;;
40116;SDS011;25829;50.228;18.936;2022-12-07T00:45:33;11.60;;;7.70;;
40116;SDS011;25829;50.228;18.936;2022-12-07T00:48:33;9.47;;;6.77;;
40116;SDS011;25829;50.228;18.936;2022-12-07T00:51:34;10.03;;;6.90;;
40116;SDS011;25829;50.228;18.936;2022-12-07T00:54:35;10.63;;;7.97;;
40116;SDS011;25829;50.228;18.936;2022-12-07T00:57:36;10.03;;;7.80;;
40116;SDS011;25829;50.228;18.936;2022-12-07T01:00:37;14.43;;;7.80;;
40116;SDS011;25829;50.228;18.936;2022-12-07T01:03:40;12.70;;;8.63;;
40116;SDS011;25829;50.228;18.936;2022-12-07T01:06:40;16.50;;;10.37;;
40116;SDS011;25829;50.228;18.936;2022-12-07T01:09:41;14.33;;;9.33;;
40116;SDS011;25829;50.228;18.936;2022-12-07T01:12:42;13.43;;;9.53;;
40116;SDS011;25829;50.228;18.936;2022-12-07T01:15:43;12.23;;;8.17;;
40116;SDS011;25829;50.228;18.936;2022-12-07T01:18:49;16.17;;;10.43;;
40116;SDS011;25829;50.228;18.936;2022-12-07T01:21:51;11.53;;;8.60;;
40116;SDS011;25829;50.228;18.936;2022-12-07T01:34:56;14.03;;;9.97;;
40116;SDS011;25829;50.228;18.936;2022-12-07T01:37:56;12.40;;;9.73;;
40116;SDS011;25829;50.228;18.936;2022-12-07T01:40:57;16.30;;;11.10;;
40116;SDS011;25829;50.228;18.936;2022-12-07T01:47:18;15.27;;;10.53;;
40116;SDS011;25829;50.228;18.936;2022-12-07T01:50:19;14.77;;;9.60;;
40116;SDS011;25829;50.228;18.936;2022-12-07T01:53:21;17.67;;;11.53;;
40116;SDS011;25829;50.228;18.936;2022-12-07T01:56:27;15.13;;;10.43;;
40116;SDS011;25829;50.228;18.936;2022-12-07T01:59:29;17.23;;;11.33;;
40116;SDS011;25829;50.228;18.936;2022-12-07T02:02:31;14.20;;;10.17;;
40116;SDS011;25829;50.228;18.936;2022-12-07T02:05:35;16.90;;;11.47;;
40116;SDS011;25829;50.228;18.936;2022-12-07T02:08:38;17.70;;;12.13;;
40116;SDS011;25829;50.228;18.936;2022-12-07T02:11:39;18.83;;;10.90;;
40116;SDS011;25829;50.228;18.936;2022-12-07T02:14:41;15.80;;;10.83;;
40116;SDS011;25829;50.228;18.936;2022-12-07T02:17:46;17.57;;;11.50;;
40116;SDS011;25829;50.228;18.936;2022-12-07T02:27:47;14.50;;;11.40;;
40116;SDS011;25829;50.228;18.936;2022-12-07T02:30:58;17.80;;;12.80;;
40116;SDS011;25829;50.228;18.936;2022-12-07T02:34:08;17.23;;;12.37;;
40116;SDS011;25829;50.228;18.936;2022-12-07T02:40:41;18.33;;;12.50;;
40116;SDS011;25829;50.228;18.936;2022-12-07T02:43:47;21.10;;;12.73;;
40116;SDS011;25829;50.228;18.936;2022-12-07T02:46:54;19.33;;;13.03;;
40116;SDS011;25829;50.228;18.936;2022-12-07T02:49:59;20.03;;;13.17;;
40116;SDS011;25829;50.228;18.936;2022-12-07T02:53:02;19.47;;;13.37;;
40116;SDS011;25829;50.228;18.936;2022-12-07T03:09:15;19.73;;;13.93;;
40116;SDS011;25829;50.228;18.936;2022-12-07T03:12:25;21.00;;;13.70;;
40116;SDS011;25829;50.228;18.936;2022-12-07T03:18:34;21.03;;;13.50;;
40116;SDS011;25829;50.228;18.936;2022-12-07T03:21:42;19.53;;;13.80;;
40116;SDS011;25829;50.228;18.936;2022-12-07T03:24:49;17.97;;;12.83;;
40116;SDS011;25829;50.228;18.936;2022-12-07T03:27:59;17.57;;;12.57;;
40116;SDS011;25829;50.228;18.936;2022-12-07T03:31:10;15.43;;;10.83;;
40116;SDS011;25829;50.228;18.936;2022-12-07T03:34:32;15.50;;;10.93;;
40116;SDS011;25829;50.228;18.936;2022-12-07T03:37:43;15.97;;;10.10;;
40116;SDS011;25829;50.228;18.936;2022-12-07T03:41:01;15.67;;;10.47;;
40116;SDS011;25829;50.228;18.936;2022-12-07T03:44:09;18.07;;;10.77;;
40116;SDS011;25829;50.228;18.936;2022-12-07T03:57:02;17.00;;;10.43;;
40116;SDS011;25829;50.228;18.936;2022-12-07T04:00:06;14.83;;;10.93;;
40116;SDS011;25829;50.228;18.936;2022-12-07T04:03:12;16.67;;;11.10;;
40116;SDS011;25829;50.228;18.936;2022-12-07T04:06:13;18.83;;;11.93;;
40116;SDS011;25829;50.228;18.936;2022-12-07T04:09:14;15.73;;;11.50;;
40116;SDS011;25829;50.228;18.936;2022-12-07T04:12:15;15.70;;;9.97;;
40116;SDS011;25829;50.228;18.936;2022-12-07T04:15:16;16.33;;;11.20;;
40116;SDS011;25829;50.228;18.936;2022-12-07T04:18:17;17.00;;;11.53;;
40116;SDS011;25829;50.228;18.936;2022-12-07T04:21:17;19.83;;;12.10;;
40116;SDS011;25829;50.228;18.936;2022-12-07T04:24:18;19.77;;;13.07;;
40116;SDS011;25829;50.228;18.936;2022-12-07T04:27:19;18.90;;;11.20;;
40116;SDS011;25829;50.228;18.936;2022-12-07T04:30:20;22.03;;;12.53;;
40116;SDS011;25829;50.228;18.936;2022-12-07T04:33:21;20.43;;;14.07;;
40116;SDS011;25829;50.228;18.936;2022-12-07T04:36:21;18.20;;;13.10;;
40116;SDS011;25829;50.228;18.936;2022-12-07T04:39:27;19.53;;;13.77;;
40116;SDS011;25829;50.228;18.936;2022-12-07T04:42:29;14.87;;;11.83;;
40116;SDS011;25829;50.228;18.936;2022-12-07T04:45:30;15.77;;;12.23;;
40116;SDS011;25829;50.228;18.936;2022-12-07T04:48:30;15.93;;;11.60;;
40116;SDS011;25829;50.228;18.936;2022-12-07T04:51:31;15.00;;;11.03;;
40116;SDS011;25829;50.228;18.936;2022-12-07T04:54:32;15.93;;;11.37;;
40116;SDS011;25829;50.228;18.936;2022-12-07T04:57:33;16.17;;;11.40;;
40116;SDS011;25829;50.228;18.936;2022-12-07T05:00:33;16.13;;;11.17;;
40116;SDS011;25829;50.228;18.936;2022-12-07T05:03:35;13.80;;;10.73;;
40116;SDS011;25829;50.228;18.936;2022-12-07T05:06:37;15.17;;;10.97;;
40116;SDS011;25829;50.228;18.936;2022-12-07T05:09:37;14.10;;;10.27;;
40116;SDS011;25829;50.228;18.936;2022-12-07T05:12:38;20.90;;;12.63;;
40116;SDS011;25829;50.228;18.936;2022-12-07T05:15:39;21.87;;;11.67;;
40116;SDS011;25829;50.228;18.936;2022-12-07T05:18:39;22.60;;;12.63;;
40116;SDS011;25829;50.228;18.936;2022-12-07T05:21:40;21.23;;;11.90;;
40116;SDS011;25829;50.228;18.936;2022-12-07T05:24:41;25.90;;;13.63;;
40116;SDS011;25829;50.228;18.936;2022-12-07T05:27:41;20.73;;;12.30;;
40116;SDS011;25829;50.228;18.936;2022-12-07T05:30:42;21.57;;;11.80;;
40116;SDS011;25829;50.228;18.936;2022-12-07T05:33:43;17.87;;;11.13;;
40116;SDS011;25829;50.228;18.936;2022-12-07T05:36:44;20.40;;;10.63;;
40116;SDS011;25829;50.228;18.936;2022-12-07T05:39:44;21.33;;;11.90;;
40116;SDS011;25829;50.228;18.936;2022-12-07T05:42:45;18.97;;;11.93;;
40116;SDS011;25829;50.228;18.936;2022-12-07T05:45:46;14.63;;;10.77;;
40116;SDS011;25829;50.228;18.936;2022-12-07T05:48:46;14.50;;;10.43;;
40116;SDS011;25829;50.228;18.936;2022-12-07T05:51:47;17.97;;;12.33;;
40116;SDS011;25829;50.228;18.936;2022-12-07T05:54:48;20.07;;;13.27;;
40116;SDS011;25829;50.228;18.936;2022-12-07T05:57:48;22.63;;;12.90;;
40116;SDS011;25829;50.228;18.936;2022-12-07T06:01:08;20.90;;;14.07;;
40116;SDS011;25829;50.228;18.936;2022-12-07T06:04:08;19.67;;;12.90;;
40116;SDS011;25829;50.228;18.936;2022-12-07T06:07:10;19.77;;;12.77;;
40116;SDS011;25829;50.228;18.936;2022-12-07T06:10:11;19.73;;;12.63;;
40116;SDS011;25829;50.228;18.936;2022-12-07T06:13:12;21.20;;;12.73;;
40116;SDS011;25829;50.228;18.936;2022-12-07T06:16:13;19.37;;;13.03;;
40116;SDS011;25829;50.228;18.936;2022-12-07T06:19:14;17.03;;;11.40;;
40116;SDS011;25829;50.228;18.936;2022-12-07T06:22:14;19.27;;;11.50;;
40116;SDS011;25829;50.228;18.936;2022-12-07T06:25:16;13.37;;;9.53;;
40116;SDS011;25829;50.228;18.936;2022-12-07T06:28:17;15.30;;;9.23;;
40116;SDS011;25829;50.228;18.936;2022-12-07T06:31:17;12.03;;;8.50;;
40116;SDS011;25829;50.228;18.936;2022-12-07T06:34:19;12.80;;;9.20;;
40116;SDS011;25829;50.228;18.936;2022-12-07T06:37:22;12.53;;;9.27;;
40116;SDS011;25829;50.228;18.936;2022-12-07T06:40:23;9.03;;;8.10;;
40116;SDS011;25829;50.228;18.936;2022-12-07T06:43:24;11.80;;;8.13;;
40116;SDS011;25829;50.228;18.936;2022-12-07T06:46:25;10.87;;;8.37;;
40116;SDS011;25829;50.228;18.936;2022-12-07T06:49:25;10.50;;;8.33;;
40116;SDS011;25829;50.228;18.936;2022-12-07T06:52:26;11.10;;;8.37;;
40116;SDS011;25829;50.228;18.936;2022-12-07T06:55:27;11.27;;;7.67;;
40116;SDS011;25829;50.228;18.936;2022-12-07T06:58:27;10.60;;;8.33;;
40116;SDS011;25829;50.228;18.936;2022-12-07T07:01:28;9.63;;;8.10;;
40116;SDS011;25829;50.228;18.936;2022-12-07T07:04:29;7.77;;;6.87;;
40116;SDS011;25829;50.228;18.936;2022-12-07T07:07:30;12.90;;;7.80;;
40116;SDS011;25829;50.228;18.936;2022-12-07T07:10:31;10.90;;;6.97;;
40116;SDS011;25829;50.228;18.936;2022-12-07T07:13:31;10.97;;;7.13;;
40116;SDS011;25829;50.228;18.936;2022-12-07T07:16:32;6.90;;;5.97;;
40116;SDS011;25829;50.228;18.936;2022-12-07T07:19:33;8.67;;;6.90;;
40116;SDS011;25829;50.228;18.936;2022-12-07T07:22:34;8.47;;;7.03;;
40116;SDS011;25829;50.228;18.936;2022-12-07T07:25:35;10.77;;;7.20;;
40116;SDS011;25829;50.228;18.936;2022-12-07T07:28:36;9.70;;;6.87;;
40116;SDS011;25829;50.228;18.936;2022-12-07T07:31:36;8.80;;;6.80;;
40116;SDS011;25829;50.228;18.936;2022-12-07T07:34:37;9.93;;;6.40;;
40116;SDS011;25829;50.228;18.936;2022-12-07T07:37:38;10.10;;;7.77;;
40116;SDS011;25829;50.228;18.936;2022-12-07T07:40:39;13.43;;;7.27;;
40116;SDS011;25829;50.228;18.936;2022-12-07T07:43:39;11.43;;;7.37;;
40116;SDS011;25829;50.228;18.936;2022-12-07T07:46:40;13.20;;;7.83;;
40116;SDS011;25829;50.228;18.936;2022-12-07T07:49:41;10.43;;;7.97;;
40116;SDS011;25829;50.228;18.936;2022-12-07T07:52:42;9.90;;;7.23;;
40116;SDS011;25829;50.228;18.936;2022-12-07T07:55:52;10.03;;;6.53;;
40116;SDS011;25829;50.228;18.936;2022-12-07T07:58:54;8.20;;;6.40;;
40116;SDS011;25829;50.228;18.936;2022-12-07T08:01:55;14.03;;;8.27;;
40116;SDS011;25829;50.228;18.936;2022-12-07T08:04:56;13.87;;;9.13;;
40116;SDS011;25829;50.228;18.936;2022-12-07T08:07:57;16.47;;;8.30;;
40116;SDS011;25829;50.228;18.936;2022-12-07T08:10:58;12.33;;;7.63;;
40116;SDS011;25829;50.228;18.936;2022-12-07T08:14:01;12.03;;;7.63;;
40116;SDS011;25829;50.228;18.936;2022-12-07T08:17:02;9.63;;;7.30;;
40116;SDS011;25829;50.228;18.936;2022-12-07T08:20:04;13.40;;;7.63;;
40116;SDS011;25829;50.228;18.936;2022-12-07T08:23:05;11.47;;;8.07;;
40116;SDS011;25829;50.228;18.936;2022-12-07T08:26:08;11.30;;;8.13;;
40116;SDS011;25829;50.228;18.936;2022-12-07T08:29:10;12.97;;;8.23;;
40116;SDS011;25829;50.228;18.936;2022-12-07T08:32:11;15.63;;;9.97;;
40116;SDS011;25829;50.228;18.936;2022-12-07T08:35:12;12.23;;;8.80;;
40116;SDS011;25829;50.228;18.936;2022-12-07T08:38:13;11.17;;;7.50;;
40116;SDS011;25829;50.228;18.936;2022-12-07T08:41:14;10.63;;;8.10;;
40116;SDS011;25829;50.228;18.936;2022-12-07T08:44:15;11.53;;;7.87;;
40116;SDS011;25829;50.228;18.936;2022-12-07T08:47:16;11.53;;;8.23;;
40116;SDS011;25829;50.228;18.936;2022-12-07T08:50:17;11.47;;;7.70;;
40116;SDS011;25829;50.228;18.936;2022-12-07T08:53:18;12.03;;;8.70;;
40116;SDS011;25829;50.228;18.936;2022-12-07T08:56:19;13.03;;;7.77;;
40116;SDS011;25829;50.228;18.936;2022-12-07T08:59:20;17.20;;;9.97;;
40116;SDS011;25829;50.228;18.936;2022-12-07T09:02:21;13.47;;;8.50;;
40116;SDS011;25829;50.228;18.936;2022-12-07T09:05:25;13.87;;;8.83;;
40116;SDS011;25829;50.228;18.936;2022-12-07T09:32:48;12.80;;;9.27;;
40116;SDS011;25829;50.228;18.936;2022-12-07T09:35:52;13.07;;;8.73;;
40116;SDS011;25829;50.228;18.936;2022-12-07T09:38:53;11.50;;;8.27;;
40116;SDS011;25829;50.228;18.936;2022-12-07T09:41:56;14.43;;;8.63;;
40116;SDS011;25829;50.228;18.936;2022-12-07T09:44:58;11.47;;;8.57;;
40116;SDS011;25829;50.228;18.936;2022-12-07T09:48:03;11.53;;;8.53;;
40116;SDS011;25829;50.228;18.936;2022-12-07T09:51:23;14.33;;;9.20;;
40116;SDS011;25829;50.228;18.936;2022-12-07T09:54:35;15.57;;;9.00;;
40116;SDS011;25829;50.228;18.936;2022-12-07T09:57:40;14.57;;;8.60;;
40116;SDS011;25829;50.228;18.936;2022-12-07T10:00:42;14.00;;;9.73;;
40116;SDS011;25829;50.228;18.936;2022-12-07T10:07:24;14.10;;;7.60;;
40116;SDS011;25829;50.228;18.936;2022-12-07T10:10:26;15.00;;;8.50;;
40116;SDS011;25829;50.228;18.936;2022-12-07T10:13:34;11.87;;;7.43;;
40116;SDS011;25829;50.228;18.936;2022-12-07T10:16:38;9.73;;;6.67;;
40116;SDS011;25829;50.228;18.936;2022-12-07T10:19:40;12.93;;;7.77;;
40116;SDS011;25829;50.228;18.936;2022-12-07T10:29:36;6.43;;;5.03;;
40116;SDS011;25829;50.228;18.936;2022-12-07T10:32:38;6.50;;;5.30;;
40116;SDS011;25829;50.228;18.936;2022-12-07T10:35:42;7.27;;;4.47;;
40116;SDS011;25829;50.228;18.936;2022-12-07T10:38:45;8.47;;;5.37;;
40116;SDS011;25829;50.228;18.936;2022-12-07T10:41:54;8.53;;;5.27;;
40116;SDS011;25829;50.228;18.936;2022-12-07T10:59:47;9.33;;;6.33;;
40116;SDS011;25829;50.228;18.936;2022-12-07T11:09:49;9.73;;;5.57;;
40116;SDS011;25829;50.228;18.936;2022-12-07T11:13:04;9.20;;;6.97;;
40116;SDS011;25829;50.228;18.936;2022-12-07T11:16:32;9.77;;;7.30;;
40116;SDS011;25829;50.228;18.936;2022-12-07T11:30:31;10.27;;;7.00;;
40116;SDS011;25829;50.228;18.936;2022-12-07T11:37:16;7.80;;;6.03;;
40116;SDS011;25829;50.228;18.936;2022-12-07T11:40:29;7.60;;;5.83;;
40116;SDS011;25829;50.228;18.936;2022-12-07T11:43:36;5.77;;;5.10;;
40116;SDS011;25829;50.228;18.936;2022-12-07T11:49:58;7.47;;;5.43;;
40116;SDS011;25829;50.228;18.936;2022-12-07T11:53:29;7.40;;;5.43;;
40116;SDS011;25829;50.228;18.936;2022-12-07T11:56:48;6.63;;;5.50;;
40116;SDS011;25829;50.228;18.936;2022-12-07T11:59:57;7.30;;;5.00;;
40116;SDS011;25829;50.228;18.936;2022-12-07T12:03:11;6.57;;;5.00;;
40116;SDS011;25829;50.228;18.936;2022-12-07T12:06:16;7.13;;;5.93;;
40116;SDS011;25829;50.228;18.936;2022-12-07T12:09:25;7.10;;;5.30;;
40116;SDS011;25829;50.228;18.936;2022-12-07T12:22:35;7.87;;;5.57;;
40116;SDS011;25829;50.228;18.936;2022-12-07T12:25:41;7.60;;;5.50;;
40116;SDS011;25829;50.228;18.936;2022-12-07T12:28:55;10.73;;;5.37;;
40116;SDS011;25829;50.228;18.936;2022-12-07T12:32:15;7.93;;;5.80;;
40116;SDS011;25829;50.228;18.936;2022-12-07T12:35:30;8.13;;;5.43;;
40116;SDS011;25829;50.228;18.936;2022-12-07T12:42:19;8.80;;;5.77;;
40116;SDS011;25829;50.228;18.936;2022-12-07T12:48:37;6.90;;;4.70;;
40116;SDS011;25829;50.228;18.936;2022-12-07T12:51:39;8.57;;;4.70;;
40116;SDS011;25829;50.228;18.936;2022-12-07T12:58:35;6.73;;;5.23;;
40116;SDS011;25829;50.228;18.936;2022-12-07T13:04:52;8.13;;;5.40;;
40116;SDS011;25829;50.228;18.936;2022-12-07T13:08:17;12.40;;;10.00;;
40116;SDS011;25829;50.228;18.936;2022-12-07T13:11:29;7.57;;;6.17;;
40116;SDS011;25829;50.228;18.936;2022-12-07T13:14:42;7.60;;;5.17;;
40116;SDS011;25829;50.228;18.936;2022-12-07T13:17:55;7.40;;;4.90;;
40116;SDS011;25829;50.228;18.936;2022-12-07T13:24:08;6.83;;;5.60;;
40116;SDS011;25829;50.228;18.936;2022-12-07T13:27:12;8.53;;;5.20;;
40116;SDS011;25829;50.228;18.936;2022-12-07T13:30:17;9.20;;;6.53;;
40116;SDS011;25829;50.228;18.936;2022-12-07T13:33:20;6.67;;;5.00;;
40116;SDS011;25829;50.228;18.936;2022-12-07T13:36:25;7.83;;;5.70;;
40116;SDS011;25829;50.228;18.936;2022-12-07T13:39:44;7.17;;;5.23;;
40116;SDS011;25829;50.228;18.936;2022-12-07T13:42:47;10.60;;;6.50;;
40116;SDS011;25829;50.228;18.936;2022-12-07T13:45:47;7.03;;;5.40;;
40116;SDS011;25829;50.228;18.936;2022-12-07T13:48:57;8.97;;;6.20;;
40116;SDS011;25829;50.228;18.936;2022-12-07T13:52:15;10.67;;;6.27;;
40116;SDS011;25829;50.228;18.936;2022-12-07T13:55:19;7.77;;;5.47;;
40116;SDS011;25829;50.228;18.936;2022-12-07T13:58:20;8.33;;;5.43;;
40116;SDS011;25829;50.228;18.936;2022-12-07T14:01:22;7.83;;;6.20;;
40116;SDS011;25829;50.228;18.936;2022-12-07T14:07:47;7.53;;;5.53;;
40116;SDS011;25829;50.228;18.936;2022-12-07T14:10:55;8.27;;;5.53;;
40116;SDS011;25829;50.228;18.936;2022-12-07T14:14:01;6.70;;;5.83;;
40116;SDS011;25829;50.228;18.936;2022-12-07T14:17:13;11.33;;;6.23;;
40116;SDS011;25829;50.228;18.936;2022-12-07T14:23:44;8.83;;;5.70;;
40116;SDS011;25829;50.228;18.936;2022-12-07T14:26:54;8.80;;;6.50;;
40116;SDS011;25829;50.228;18.936;2022-12-07T14:29:55;7.00;;;6.00;;
40116;SDS011;25829;50.228;18.936;2022-12-07T14:32:57;8.07;;;6.20;;
40116;SDS011;25829;50.228;18.936;2022-12-07T14:36:01;8.67;;;5.83;;
40116;SDS011;25829;50.228;18.936;2022-12-07T14:39:01;7.17;;;5.80;;
40116;SDS011;25829;50.228;18.936;2022-12-07T14:42:02;8.37;;;6.47;;
40116;SDS011;25829;50.228;18.936;2022-12-07T14:45:03;9.57;;;6.80;;
40116;SDS011;25829;50.228;18.936;2022-12-07T14:48:04;10.77;;;7.33;;
40116;SDS011;25829;50.228;18.936;2022-12-07T14:51:07;10.17;;;6.63;;
40116;SDS011;25829;50.228;18.936;2022-12-07T14:54:16;11.07;;;6.37;;
40116;SDS011;25829;50.228;18.936;2022-12-07T14:57:18;9.33;;;7.03;;
40116;SDS011;25829;50.228;18.936;2022-12-07T15:00:20;9.13;;;6.17;;
40116;SDS011;25829;50.228;18.936;2022-12-07T15:03:22;8.50;;;6.73;;
40116;SDS011;25829;50.228;18.936;2022-12-07T15:06:23;8.73;;;6.40;;
40116;SDS011;25829;50.228;18.936;2022-12-07T15:09:24;12.60;;;7.17;;
40116;SDS011;25829;50.228;18.936;2022-12-07T15:12:25;36.00;;;17.17;;
40116;SDS011;25829;50.228;18.936;2022-12-07T15:15:25;30.73;;;14.33;;
40116;SDS011;25829;50.228;18.936;2022-12-07T15:18:26;27.83;;;12.63;;
40116;SDS011;25829;50.228;18.936;2022-12-07T15:21:28;21.33;;;10.07;;
40116;SDS011;25829;50.228;18.936;2022-12-07T15:24:29;17.80;;;9.17;;
40116;SDS011;25829;50.228;18.936;2022-12-07T15:27:30;18.87;;;10.27;;
40116;SDS011;25829;50.228;18.936;2022-12-07T15:30:33;17.50;;;8.63;;
40116;SDS011;25829;50.228;18.936;2022-12-07T15:33:33;12.80;;;7.37;;
40116;SDS011;25829;50.228;18.936;2022-12-07T15:36:35;16.67;;;10.83;;
40116;SDS011;25829;50.228;18.936;2022-12-07T15:39:36;14.53;;;8.47;;
40116;SDS011;25829;50.228;18.936;2022-12-07T15:42:37;22.43;;;12.03;;
40116;SDS011;25829;50.228;18.936;2022-12-07T15:45:41;19.93;;;10.93;;
40116;SDS011;25829;50.228;18.936;2022-12-07T15:48:42;14.33;;;7.77;;
40116;SDS011;25829;50.228;18.936;2022-12-07T15:51:43;19.03;;;8.70;;
40116;SDS011;25829;50.228;18.936;2022-12-07T15:54:45;14.27;;;8.60;;
40116;SDS011;25829;50.228;18.936;2022-12-07T15:57:47;17.87;;;8.43;;
40116;SDS011;25829;50.228;18.936;2022-12-07T16:00:51;16.53;;;8.80;;
40116;SDS011;25829;50.228;18.936;2022-12-07T16:03:52;16.67;;;9.33;;
40116;SDS011;25829;50.228;18.936;2022-12-07T16:06:52;21.83;;;11.93;;
40116;SDS011;25829;50.228;18.936;2022-12-07T16:09:53;22.87;;;9.47;;
40116;SDS011;25829;50.228;18.936;2022-12-07T16:12:54;27.83;;;11.43;;
40116;SDS011;25829;50.228;18.936;2022-12-07T16:15:55;22.80;;;11.30;;
40116;SDS011;25829;50.228;18.936;2022-12-07T16:18:56;19.93;;;10.37;;
40116;SDS011;25829;50.228;18.936;2022-12-07T16:22:03;31.33;;;12.97;;
40116;SDS011;25829;50.228;18.936;2022-12-07T16:25:05;25.23;;;11.30;;
40116;SDS011;25829;50.228;18.936;2022-12-07T16:28:06;19.00;;;10.07;;
40116;SDS011;25829;50.228;18.936;2022-12-07T16:31:09;15.13;;;9.17;;
40116;SDS011;25829;50.228;18.936;2022-12-07T16:34:11;22.50;;;9.80;;
40116;SDS011;25829;50.228;18.936;2022-12-07T16:37:12;12.43;;;7.33;;
40116;SDS011;25829;50.228;18.936;2022-12-07T16:40:13;10.20;;;6.97;;
40116;SDS011;25829;50.228;18.936;2022-12-07T16:43:14;12.20;;;7.57;;
40116;SDS011;25829;50.228;18.936;2022-12-07T16:46:15;10.27;;;7.70;;
40116;SDS011;25829;50.228;18.936;2022-12-07T16:49:16;12.90;;;7.60;;
40116;SDS011;25829;50.228;18.936;2022-12-07T16:52:19;11.90;;;7.90;;
40116;SDS011;25829;50.228;18.936;2022-12-07T16:55:21;13.40;;;7.50;;
40116;SDS011;25829;50.228;18.936;2022-12-07T16:58:21;10.57;;;7.13;;
40116;SDS011;25829;50.228;18.936;2022-12-07T17:01:23;13.23;;;7.30;;
40116;SDS011;25829;50.228;18.936;2022-12-07T17:04:23;13.17;;;7.87;;
40116;SDS011;25829;50.228;18.936;2022-12-07T17:07:24;12.07;;;6.97;;
40116;SDS011;25829;50.228;18.936;2022-12-07T17:10:25;9.20;;;6.53;;
40116;SDS011;25829;50.228;18.936;2022-12-07T17:13:26;10.67;;;6.50;;
40116;SDS011;25829;50.228;18.936;2022-12-07T17:16:45;13.27;;;7.27;;
40116;SDS011;25829;50.228;18.936;2022-12-07T17:19:46;14.83;;;7.50;;
40116;SDS011;25829;50.228;18.936;2022-12-07T17:22:47;24.07;;;10.97;;
40116;SDS011;25829;50.228;18.936;2022-12-07T17:25:48;12.43;;;7.07;;
40116;SDS011;25829;50.228;18.936;2022-12-07T17:28:49;13.13;;;7.20;;
40116;SDS011;25829;50.228;18.936;2022-12-07T17:31:49;10.33;;;6.87;;
40116;SDS011;25829;50.228;18.936;2022-12-07T17:34:52;14.63;;;8.37;;
40116;SDS011;25829;50.228;18.936;2022-12-07T17:38:02;11.87;;;7.10;;
40116;SDS011;25829;50.228;18.936;2022-12-07T17:44:51;10.87;;;6.57;;
40116;SDS011;25829;50.228;18.936;2022-12-07T17:47:52;16.30;;;7.80;;
40116;SDS011;25829;50.228;18.936;2022-12-07T17:50:59;11.53;;;8.03;;
40116;SDS011;25829;50.228;18.936;2022-12-07T17:54:19;12.57;;;8.47;;
40116;SDS011;25829;50.228;18.936;2022-12-07T17:57:20;14.27;;;7.90;;
40116;SDS011;25829;50.228;18.936;2022-12-07T18:03:29;10.50;;;7.80;;
40116;SDS011;25829;50.228;18.936;2022-12-07T18:06:31;18.07;;;8.73;;
40116;SDS011;25829;50.228;18.936;2022-12-07T18:09:33;12.90;;;7.80;;
40116;SDS011;25829;50.228;18.936;2022-12-07T18:12:43;11.70;;;6.83;;
40116;SDS011;25829;50.228;18.936;2022-12-07T18:15:44;10.00;;;7.67;;
40116;SDS011;25829;50.228;18.936;2022-12-07T18:19:04;12.33;;;7.77;;
40116;SDS011;25829;50.228;18.936;2022-12-07T18:22:08;10.40;;;6.57;;
40116;SDS011;25829;50.228;18.936;2022-12-07T18:25:17;9.63;;;6.63;;
40116;SDS011;25829;50.228;18.936;2022-12-07T18:28:18;11.37;;;6.70;;
40116;SDS011;25829;50.228;18.936;2022-12-07T18:31:20;11.97;;;6.80;;
40116;SDS011;25829;50.228;18.936;2022-12-07T18:34:24;12.33;;;6.80;;
40116;SDS011;25829;50.228;18.936;2022-12-07T18:37:33;10.70;;;6.57;;
40116;SDS011;25829;50.228;18.936;2022-12-07T18:40:39;10.50;;;7.13;;
40116;SDS011;25829;50.228;18.936;2022-12-07T18:43:41;12.93;;;6.87;;
40116;SDS011;25829;50.228;18.936;2022-12-07T18:46:45;11.93;;;7.57;;
40116;SDS011;25829;50.228;18.936;2022-12-07T18:50:01;10.20;;;7.13;;
40116;SDS011;25829;50.228;18.936;2022-12-07T18:53:03;11.07;;;7.50;;
40116;SDS011;25829;50.228;18.936;2022-12-07T18:56:12;12.70;;;7.70;;
40116;SDS011;25829;50.228;18.936;2022-12-07T18:59:17;15.20;;;8.33;;
40116;SDS011;25829;50.228;18.936;2022-12-07T19:02:36;13.20;;;7.70;;
40116;SDS011;25829;50.228;18.936;2022-12-07T19:05:37;12.33;;;7.60;;
40116;SDS011;25829;50.228;18.936;2022-12-07T19:08:38;15.27;;;9.30;;
40116;SDS011;25829;50.228;18.936;2022-12-07T19:11:39;13.47;;;8.53;;
40116;SDS011;25829;50.228;18.936;2022-12-07T19:14:50;15.53;;;9.40;;
40116;SDS011;25829;50.228;18.936;2022-12-07T19:17:50;12.63;;;8.07;;
40116;SDS011;25829;50.228;18.936;2022-12-07T19:20:51;14.60;;;8.77;;
40116;SDS011;25829;50.228;18.936;2022-12-07T19:23:52;13.10;;;8.20;;
40116;SDS011;25829;50.228;18.936;2022-12-07T19:26:57;11.47;;;8.17;;
40116;SDS011;25829;50.228;18.936;2022-12-07T19:29:58;13.27;;;7.70;;
40116;SDS011;25829;50.228;18.936;2022-12-07T19:32:59;13.03;;;7.77;;
40116;SDS011;25829;50.228;18.936;2022-12-07T19:36:00;13.00;;;7.90;;
40116;SDS011;25829;50.228;18.936;2022-12-07T19:39:01;10.13;;;7.30;;
40116;SDS011;25829;50.228;18.936;2022-12-07T19:42:02;12.80;;;8.47;;
40116;SDS011;25829;50.228;18.936;2022-12-07T19:45:03;12.40;;;7.73;;
40116;SDS011;25829;50.228;18.936;2022-12-07T19:48:04;13.30;;;8.30;;
40116;SDS011;25829;50.228;18.936;2022-12-07T19:51:05;17.30;;;9.53;;
40116;SDS011;25829;50.228;18.936;2022-12-07T19:54:06;14.30;;;9.23;;
40116;SDS011;25829;50.228;18.936;2022-12-07T19:57:06;15.00;;;9.50;;
40116;SDS011;25829;50.228;18.936;2022-12-07T20:00:14;16.07;;;9.20;;
40116;SDS011;25829;50.228;18.936;2022-12-07T20:03:16;16.97;;;10.17;;
40116;SDS011;25829;50.228;18.936;2022-12-07T20:06:18;19.80;;;11.13;;
40116;SDS011;25829;50.228;18.936;2022-12-07T20:09:19;20.10;;;11.50;;
40116;SDS011;25829;50.228;18.936;2022-12-07T20:12:20;14.23;;;9.83;;
40116;SDS011;25829;50.228;18.936;2022-12-07T20:15:40;18.00;;;9.80;;
40116;SDS011;25829;50.228;18.936;2022-12-07T20:18:41;17.63;;;10.37;;
40116;SDS011;25829;50.228;18.936;2022-12-07T20:21:42;17.30;;;9.80;;
40116;SDS011;25829;50.228;18.936;2022-12-07T20:24:44;18.27;;;10.07;;
40116;SDS011;25829;50.228;18.936;2022-12-07T20:27:45;20.27;;;12.13;;
40116;SDS011;25829;50.228;18.936;2022-12-07T20:30:49;28.63;;;12.53;;
40116;SDS011;25829;50.228;18.936;2022-12-07T20:33:51;25.30;;;13.27;;
40116;SDS011;25829;50.228;18.936;2022-12-07T20:36:53;27.57;;;14.67;;